createdAt,value
2023-02-14T00:00:03.239Z,-0.3
2023-02-14T00:15:02.445Z,-0.4
2023-02-14T00:30:02.957Z,-0.6
2023-02-14T00:45:02.360Z,-0.7
2023-02-14T01:00:02.772Z,-0.7
2023-02-14T01:15:03.309Z,-0.8
2023-02-14T01:30:02.692Z,-0.9
2023-02-14T01:45:03.301Z,-0.9
2023-02-14T02:00:02.532Z,-1.0
2023-02-14T02:15:02.968Z,-1.2
2023-02-14T02:30:02.483Z,-1.3
2023-02-14T02:45:02.851Z,-1.2
2023-02-14T03:00:02.330Z,-1.5
2023-02-14T03:15:02.746Z,-1.5
2023-02-14T03:30:02.365Z,-1.7
2023-02-14T03:45:02.766Z,-1.6
2023-02-14T04:00:02.077Z,-1.7
2023-02-14T04:15:02.549Z,-1.7
2023-02-14T04:45:04.211Z,-1.8
2023-02-14T05:00:02.792Z,-1.6
2023-02-14T05:15:03.364Z,-1.8
2023-02-14T05:30:02.743Z,-1.8
2023-02-14T05:45:03.331Z,-1.6
2023-02-14T06:00:02.538Z,-1.6
2023-02-14T06:15:02.945Z,-1.8
2023-02-14T06:30:02.452Z,-2.0
2023-02-14T06:45:02.827Z,-2.1
2023-02-14T07:00:03.371Z,-2.1
2023-02-14T07:15:02.730Z,-2.0
2023-02-14T07:30:03.434Z,-1.8
2023-02-14T07:45:12.591Z,-1.5
2023-02-14T08:00:03.025Z,-1.2
2023-02-14T08:15:02.461Z,-0.2
2023-02-14T08:30:03.028Z,0.4
2023-02-14T08:45:02.385Z,1.5
2023-02-14T09:00:02.781Z,3.2
2023-02-14T09:15:03.386Z,6.0
2023-02-14T09:30:02.765Z,7.5
2023-02-14T09:45:03.114Z,9.0
2023-02-14T10:00:02.549Z,9.9
2023-02-14T10:15:03.000Z,11.1
2023-02-14T10:30:02.511Z,12.1
2023-02-14T10:45:02.858Z,13.2
2023-02-14T11:00:02.407Z,12.6
2023-02-14T11:15:02.784Z,12.0
2023-02-14T11:30:02.505Z,12.3
2023-02-14T11:45:02.643Z,14.0
2023-02-14T12:00:03.111Z,15.2
2023-02-14T12:15:02.505Z,15.5
2023-02-14T12:30:02.983Z,16.4
2023-02-14T12:45:02.434Z,17.3
2023-02-14T13:00:02.800Z,17.8
2023-02-14T13:15:03.440Z,17.5
2023-02-14T13:30:02.732Z,17.8
2023-02-14T13:45:03.161Z,16.9
2023-02-14T14:00:02.568Z,14.4
2023-02-14T14:15:03.000Z,13.1
2023-02-14T14:30:02.503Z,12.6
2023-02-14T14:45:02.898Z,12.0
2023-02-14T15:00:02.495Z,12.0
2023-02-14T15:15:02.746Z,11.6
2023-02-14T15:30:03.241Z,11.2
2023-02-14T15:45:02.633Z,10.7
2023-02-14T16:00:03.054Z,10.2
2023-02-14T16:15:02.518Z,9.7
2023-02-14T16:30:03.042Z,9.3
2023-02-14T16:45:02.465Z,8.6
2023-02-14T17:00:02.796Z,7.8
2023-02-14T17:15:03.478Z,6.8
2023-02-14T17:30:02.887Z,6.1
2023-02-14T17:45:02.122Z,5.5
2023-02-14T18:00:02.545Z,4.7
2023-02-14T18:15:03.052Z,4.2
2023-02-14T18:30:02.606Z,3.6
2023-02-14T18:45:02.862Z,3.2
2023-02-14T19:00:02.512Z,2.7
2023-02-14T19:15:02.739Z,2.5
2023-02-14T19:30:03.198Z,2.4
2023-02-14T19:45:02.605Z,1.9
2023-02-14T20:00:03.061Z,1.7
2023-02-14T20:15:02.517Z,1.4
2023-02-14T20:30:03.034Z,1.1
2023-02-14T20:45:02.535Z,0.9
2023-02-14T21:00:02.795Z,0.9
2023-02-14T21:15:03.280Z,0.3
2023-02-14T21:30:02.758Z,0.3
2023-02-14T21:45:03.109Z,0.2
2023-02-14T22:00:02.565Z,0.0
2023-02-14T22:15:02.967Z,0.0
2023-02-14T22:30:02.595Z,-0.2
2023-02-14T22:45:02.833Z,-0.3
2023-02-14T23:00:02.272Z,-0.5
2023-02-14T23:15:02.713Z,-0.7
2023-02-14T23:30:03.252Z,-0.9
2023-02-14T23:45:02.588Z,-0.9
